sensor_id;sensor_type;location;lat;lon;timestamp;P1;durP1;ratioP1;P2;durP2;ratioP2
63880;SDS011;50046;46.672;11.152;2022-12-18T00:00:03;0.50;;;0.50;;
63880;SDS011;50046;46.672;11.152;2022-12-18T00:00:15;0.43;;;0.43;;
63880;SDS011;50046;46.672;11.152;2022-12-18T00:00:26;0.40;;;0.40;;
63880;SDS011;50046;46.672;11.152;2022-12-18T00:00:40;0.50;;;0.50;;
63880;SDS011;50046;46.672;11.152;2022-12-18T00:00:51;0.60;;;0.60;;
63880;SDS011;50046;46.672;11.152;2022-12-18T00:01:02;0.67;;;0.67;;
63880;SDS011;50046;46.672;11.152;2022-12-18T00:01:17;0.60;;;0.60;;
63880;SDS011;50046;46.672;11.152;2022-12-18T00:01:33;0.55;;;0.55;;
63880;SDS011;50046;46.672;11.152;2022-12-18T00:01:45;0.50;;;0.50;;
63880;SDS011;50046;46.672;11.152;2022-12-18T00:01:58;0.45;;;0.45;;
63880;SDS011;50046;46.672;11.152;2022-12-18T00:02:09;0.50;;;0.50;;
63880;SDS011;50046;46.672;11.152;2022-12-18T00:02:22;0.50;;;0.50;;
63880;SDS011;50046;46.672;11.152;2022-12-18T00:02:33;0.60;;;0.60;;
63880;SDS011;50046;46.672;11.152;2022-12-18T00:02:43;0.68;;;0.68;;
63880;SDS011;50046;46.672;11.152;2022-12-18T00:02:55;0.70;;;0.70;;
63880;SDS011;50046;46.672;11.152;2022-12-18T00:03:05;0.60;;;0.60;;
63880;SDS011;50046;46.672;11.152;2022-12-18T00:03:15;0.57;;;0.57;;
63880;SDS011;50046;46.672;11.152;2022-12-18T00:03:26;0.50;;;0.50;;
63880;SDS011;50046;46.672;11.152;2022-12-18T00:03:36;0.50;;;0.50;;
63880;SDS011;50046;46.672;11.152;2022-12-18T00:03:46;0.50;;;0.50;;
63880;SDS011;50046;46.672;11.152;2022-12-18T00:03:58;0.50;;;0.50;;
63880;SDS011;50046;46.672;11.152;2022-12-18T00:04:18;0.50;;;0.50;;
63880;SDS011;50046;46.672;11.152;2022-12-18T00:04:31;0.55;;;0.55;;
63880;SDS011;50046;46.672;11.152;2022-12-18T00:04:42;0.60;;;0.60;;
63880;SDS011;50046;46.672;11.152;2022-12-18T00:04:52;0.60;;;0.60;;
63880;SDS011;50046;46.672;11.152;2022-12-18T00:05:03;0.60;;;0.60;;
63880;SDS011;50046;46.672;11.152;2022-12-18T00:05:13;0.60;;;0.60;;
63880;SDS011;50046;46.672;11.152;2022-12-18T00:05:24;0.50;;;0.50;;
63880;SDS011;50046;46.672;11.152;2022-12-18T00:05:34;0.50;;;0.50;;
63880;SDS011;50046;46.672;11.152;2022-12-18T00:05:46;0.50;;;0.50;;
63880;SDS011;50046;46.672;11.152;2022-12-18T00:05:57;0.50;;;0.50;;
63880;SDS011;50046;46.672;11.152;2022-12-18T00:06:08;0.40;;;0.40;;
63880;SDS011;50046;46.672;11.152;2022-12-18T00:06:19;0.50;;;0.50;;
63880;SDS011;50046;46.672;11.152;2022-12-18T00:06:30;0.55;;;0.55;;
63880;SDS011;50046;46.672;11.152;2022-12-18T00:06:43;0.60;;;0.60;;
63880;SDS011;50046;46.672;11.152;2022-12-18T00:06:53;0.60;;;0.60;;
63880;SDS011;50046;46.672;11.152;2022-12-18T00:07:04;0.60;;;0.60;;
63880;SDS011;50046;46.672;11.152;2022-12-18T00:07:14;0.60;;;0.60;;
63880;SDS011;50046;46.672;11.152;2022-12-18T00:07:24;0.60;;;0.60;;
63880;SDS011;50046;46.672;11.152;2022-12-18T00:07:35;0.60;;;0.60;;
63880;SDS011;50046;46.672;11.152;2022-12-18T00:07:45;0.50;;;0.50;;
63880;SDS011;50046;46.672;11.152;2022-12-18T00:07:56;0.50;;;0.50;;
63880;SDS011;50046;46.672;11.152;2022-12-18T00:08:06;0.40;;;0.40;;
63880;SDS011;50046;46.672;11.152;2022-12-18T00:08:17;0.50;;;0.50;;
63880;SDS011;50046;46.672;11.152;2022-12-18T00:08:28;0.50;;;0.50;;
63880;SDS011;50046;46.672;11.152;2022-12-18T00:08:39;0.60;;;0.60;;
63880;SDS011;50046;46.672;11.152;2022-12-18T00:08:50;0.60;;;0.60;;
63880;SDS011;50046;46.672;11.152;2022-12-18T00:09:01;0.50;;;0.50;;
63880;SDS011;50046;46.672;11.152;2022-12-18T00:09:12;0.50;;;0.50;;
63880;SDS011;50046;46.672;11.152;2022-12-18T00:09:24;0.50;;;0.50;;
63880;SDS011;50046;46.672;11.152;2022-12-18T00:09:34;0.40;;;0.40;;
63880;SDS011;50046;46.672;11.152;2022-12-18T00:09:45;0.40;;;0.40;;
63880;SDS011;50046;46.672;11.152;2022-12-18T00:09:55;0.50;;;0.50;;
63880;SDS011;50046;46.672;11.152;2022-12-18T00:10:06;0.60;;;0.60;;
63880;SDS011;50046;46.672;11.152;2022-12-18T00:10:16;0.60;;;0.60;;
63880;SDS011;50046;46.672;11.152;2022-12-18T00:10:30;0.60;;;0.60;;
63880;SDS011;50046;46.672;11.152;2022-12-18T00:10:40;0.60;;;0.60;;
63880;SDS011;50046;46.672;11.152;2022-12-18T00:10:53;0.60;;;0.60;;
63880;SDS011;50046;46.672;11.152;2022-12-18T00:11:04;0.50;;;0.50;;
63880;SDS011;50046;46.672;11.152;2022-12-18T00:11:17;0.50;;;0.50;;
63880;SDS011;50046;46.672;11.152;2022-12-18T00:11:29;0.50;;;0.50;;
63880;SDS011;50046;46.672;11.152;2022-12-18T00:11:40;0.50;;;0.50;;
63880;SDS011;50046;46.672;11.152;2022-12-18T00:11:51;0.50;;;0.50;;
63880;SDS011;50046;46.672;11.152;2022-12-18T00:12:01;0.50;;;0.50;;
63880;SDS011;50046;46.672;11.152;2022-12-18T00:12:11;0.50;;;0.50;;
63880;SDS011;50046;46.672;11.152;2022-12-18T00:12:22;0.60;;;0.60;;
63880;SDS011;50046;46.672;11.152;2022-12-18T00:12:32;0.60;;;0.60;;
63880;SDS011;50046;46.672;11.152;2022-12-18T00:12:42;0.50;;;0.50;;
63880;SDS011;50046;46.672;11.152;2022-12-18T00:12:53;0.50;;;0.50;;
63880;SDS011;50046;46.672;11.152;2022-12-18T00:13:03;0.50;;;0.50;;
63880;SDS011;50046;46.672;11.152;2022-12-18T00:13:13;0.40;;;0.40;;
63880;SDS011;50046;46.672;11.152;2022-12-18T00:13:24;0.40;;;0.40;;
63880;SDS011;50046;46.672;11.152;2022-12-18T00:13:34;0.50;;;0.50;;
63880;SDS011;50046;46.672;11.152;2022-12-18T00:13:45;0.60;;;0.60;;
63880;SDS011;50046;46.672;11.152;2022-12-18T00:13:59;0.70;;;0.70;;
63880;SDS011;50046;46.672;11.152;2022-12-18T00:14:10;0.70;;;0.70;;
63880;SDS011;50046;46.672;11.152;2022-12-18T00:14:22;0.70;;;0.70;;
63880;SDS011;50046;46.672;11.152;2022-12-18T00:14:38;0.60;;;0.60;;
63880;SDS011;50046;46.672;11.152;2022-12-18T00:14:48;0.60;;;0.60;;
63880;SDS011;50046;46.672;11.152;2022-12-18T00:14:59;0.50;;;0.50;;
63880;SDS011;50046;46.672;11.152;2022-12-18T00:15:09;0.50;;;0.50;;
63880;SDS011;50046;46.672;11.152;2022-12-18T00:15:20;0.50;;;0.50;;
63880;SDS011;50046;46.672;11.152;2022-12-18T00:15:30;0.50;;;0.50;;
63880;SDS011;50046;46.672;11.152;2022-12-18T00:15:44;0.50;;;0.50;;
63880;SDS011;50046;46.672;11.152;2022-12-18T00:15:54;0.50;;;0.50;;
63880;SDS011;50046;46.672;11.152;2022-12-18T00:16:15;0.43;;;0.43;;
63880;SDS011;50046;46.672;11.152;2022-12-18T00:16:28;0.77;;;0.77;;
63880;SDS011;50046;46.672;11.152;2022-12-18T00:16:42;0.80;;;0.80;;
63880;SDS011;50046;46.672;11.152;2022-12-18T00:16:53;0.77;;;0.77;;
63880;SDS011;50046;46.672;11.152;2022-12-18T00:17:04;0.70;;;0.70;;
63880;SDS011;50046;46.672;11.152;2022-12-18T00:17:14;0.60;;;0.60;;
63880;SDS011;50046;46.672;11.152;2022-12-18T00:17:24;0.60;;;0.60;;
63880;SDS011;50046;46.672;11.152;2022-12-18T00:17:35;0.53;;;0.53;;
63880;SDS011;50046;46.672;11.152;2022-12-18T00:17:45;0.50;;;0.50;;
63880;SDS011;50046;46.672;11.152;2022-12-18T00:17:56;0.50;;;0.50;;
63880;SDS011;50046;46.672;11.152;2022-12-18T00:18:06;0.50;;;0.50;;
63880;SDS011;50046;46.672;11.152;2022-12-18T00:18:16;0.50;;;0.50;;
63880;SDS011;50046;46.672;11.152;2022-12-18T00:18:27;0.50;;;0.50;;
63880;SDS011;50046;46.672;11.152;2022-12-18T00:18:38;0.50;;;0.50;;
63880;SDS011;50046;46.672;11.152;2022-12-18T00:18:49;0.45;;;0.45;;
63880;SDS011;50046;46.672;11.152;2022-12-18T00:19:00;0.60;;;0.60;;
63880;SDS011;50046;46.672;11.152;2022-12-18T00:19:12;0.70;;;0.70;;
63880;SDS011;50046;46.672;11.152;2022-12-18T00:19:23;0.80;;;0.80;;
63880;SDS011;50046;46.672;11.152;2022-12-18T00:19:34;0.70;;;0.70;;
63880;SDS011;50046;46.672;11.152;2022-12-18T00:19:44;0.70;;;0.70;;
63880;SDS011;50046;46.672;11.152;2022-12-18T00:19:54;0.70;;;0.70;;
63880;SDS011;50046;46.672;11.152;2022-12-18T00:20:05;0.60;;;0.60;;
63880;SDS011;50046;46.672;11.152;2022-12-18T00:20:15;0.60;;;0.60;;
63880;SDS011;50046;46.672;11.152;2022-12-18T00:20:31;0.60;;;0.60;;
63880;SDS011;50046;46.672;11.152;2022-12-18T00:20:41;0.50;;;0.50;;
63880;SDS011;50046;46.672;11.152;2022-12-18T00:20:51;0.50;;;0.50;;
63880;SDS011;50046;46.672;11.152;2022-12-18T00:21:02;0.50;;;0.50;;
63880;SDS011;50046;46.672;11.152;2022-12-18T00:21:15;0.50;;;0.50;;
63880;SDS011;50046;46.672;11.152;2022-12-18T00:21:26;0.50;;;0.50;;
63880;SDS011;50046;46.672;11.152;2022-12-18T00:21:38;0.57;;;0.57;;
63880;SDS011;50046;46.672;11.152;2022-12-18T00:21:51;0.75;;;0.75;;
63880;SDS011;50046;46.672;11.152;2022-12-18T00:22:01;0.80;;;0.80;;
63880;SDS011;50046;46.672;11.152;2022-12-18T00:22:12;0.80;;;0.80;;
63880;SDS011;50046;46.672;11.152;2022-12-18T00:22:22;0.77;;;0.77;;
63880;SDS011;50046;46.672;11.152;2022-12-18T00:22:32;0.70;;;0.70;;
63880;SDS011;50046;46.672;11.152;2022-12-18T00:22:43;0.60;;;0.60;;
63880;SDS011;50046;46.672;11.152;2022-12-18T00:22:53;0.60;;;0.60;;
63880;SDS011;50046;46.672;11.152;2022-12-18T00:23:03;0.52;;;0.52;;
63880;SDS011;50046;46.672;11.152;2022-12-18T00:23:14;0.50;;;0.50;;
63880;SDS011;50046;46.672;11.152;2022-12-18T00:23:25;0.50;;;0.50;;
63880;SDS011;50046;46.672;11.152;2022-12-18T00:23:35;0.50;;;0.50;;
63880;SDS011;50046;46.672;11.152;2022-12-18T00:23:47;0.50;;;0.50;;
63880;SDS011;50046;46.672;11.152;2022-12-18T00:24:00;0.40;;;0.40;;
63880;SDS011;50046;46.672;11.152;2022-12-18T00:24:11;0.50;;;0.50;;
63880;SDS011;50046;46.672;11.152;2022-12-18T00:24:21;0.60;;;0.60;;
63880;SDS011;50046;46.672;11.152;2022-12-18T00:24:32;0.73;;;0.73;;
63880;SDS011;50046;46.672;11.152;2022-12-18T00:24:42;0.80;;;0.80;;
63880;SDS011;50046;46.672;11.152;2022-12-18T00:24:52;0.70;;;0.70;;
63880;SDS011;50046;46.672;11.152;2022-12-18T00:25:03;0.70;;;0.70;;
63880;SDS011;50046;46.672;11.152;2022-12-18T00:25:13;0.70;;;0.70;;
63880;SDS011;50046;46.672;11.152;2022-12-18T00:25:24;0.60;;;0.60;;
63880;SDS011;50046;46.672;11.152;2022-12-18T00:25:35;0.60;;;0.60;;
63880;SDS011;50046;46.672;11.152;2022-12-18T00:25:46;0.60;;;0.60;;
63880;SDS011;50046;46.672;11.152;2022-12-18T00:26:03;0.60;;;0.60;;
63880;SDS011;50046;46.672;11.152;2022-12-18T00:26:51;0.50;;;0.50;;
63880;SDS011;50046;46.672;11.152;2022-12-18T00:26:54;0.50;;;0.50;;
63880;SDS011;50046;46.672;11.152;2022-12-18T00:27:04;0.63;;;0.63;;
63880;SDS011;50046;46.672;11.152;2022-12-18T00:27:15;0.73;;;0.73;;
63880;SDS011;50046;46.672;11.152;2022-12-18T00:27:25;0.77;;;0.77;;
63880;SDS011;50046;46.672;11.152;2022-12-18T00:27:35;0.70;;;0.70;;
63880;SDS011;50046;46.672;11.152;2022-12-18T00:27:46;0.70;;;0.70;;
63880;SDS011;50046;46.672;11.152;2022-12-18T00:27:56;0.60;;;0.60;;
63880;SDS011;50046;46.672;11.152;2022-12-18T00:28:06;0.60;;;0.60;;
63880;SDS011;50046;46.672;11.152;2022-12-18T00:28:17;0.60;;;0.60;;
63880;SDS011;50046;46.672;11.152;2022-12-18T00:28:27;0.50;;;0.50;;
63880;SDS011;50046;46.672;11.152;2022-12-18T00:28:38;0.50;;;0.50;;
63880;SDS011;50046;46.672;11.152;2022-12-18T00:28:48;0.50;;;0.50;;
63880;SDS011;50046;46.672;11.152;2022-12-18T00:29:20;0.50;;;0.50;;
63880;SDS011;50046;46.672;11.152;2022-12-18T00:29:30;0.50;;;0.50;;
63880;SDS011;50046;46.672;11.152;2022-12-18T00:29:40;0.60;;;0.60;;
63880;SDS011;50046;46.672;11.152;2022-12-18T00:29:50;0.60;;;0.60;;
63880;SDS011;50046;46.672;11.152;2022-12-18T00:30:01;0.60;;;0.60;;
63880;SDS011;50046;46.672;11.152;2022-12-18T00:30:11;0.50;;;0.50;;
63880;SDS011;50046;46.672;11.152;2022-12-18T00:30:22;0.50;;;0.50;;
63880;SDS011;50046;46.672;11.152;2022-12-18T00:30:32;0.50;;;0.50;;
63880;SDS011;50046;46.672;11.152;2022-12-18T00:30:43;0.50;;;0.50;;
63880;SDS011;50046;46.672;11.152;2022-12-18T00:31:04;0.50;;;0.50;;
63880;SDS011;50046;46.672;11.152;2022-12-18T00:31:20;0.60;;;0.60;;
63880;SDS011;50046;46.672;11.152;2022-12-18T00:31:32;0.60;;;0.60;;
63880;SDS011;50046;46.672;11.152;2022-12-18T00:31:42;0.50;;;0.50;;
63880;SDS011;50046;46.672;11.152;2022-12-18T00:31:53;0.50;;;0.50;;
63880;SDS011;50046;46.672;11.152;2022-12-18T00:32:03;0.50;;;0.50;;
63880;SDS011;50046;46.672;11.152;2022-12-18T00:32:14;0.50;;;0.50;;
63880;SDS011;50046;46.672;11.152;2022-12-18T00:32:24;0.50;;;0.50;;
63880;SDS011;50046;46.672;11.152;2022-12-18T00:32:34;0.50;;;0.50;;
63880;SDS011;50046;46.672;11.152;2022-12-18T00:32:45;0.43;;;0.43;;
63880;SDS011;50046;46.672;11.152;2022-12-18T00:32:55;0.50;;;0.50;;
63880;SDS011;50046;46.672;11.152;2022-12-18T00:33:07;0.57;;;0.57;;
63880;SDS011;50046;46.672;11.152;2022-12-18T00:33:17;0.60;;;0.60;;
63880;SDS011;50046;46.672;11.152;2022-12-18T00:33:28;0.60;;;0.60;;
63880;SDS011;50046;46.672;11.152;2022-12-18T00:33:38;0.50;;;0.50;;
63880;SDS011;50046;46.672;11.152;2022-12-18T00:33:49;0.50;;;0.50;;
63880;SDS011;50046;46.672;11.152;2022-12-18T00:34:00;0.50;;;0.50;;
63880;SDS011;50046;46.672;11.152;2022-12-18T00:34:11;0.50;;;0.50;;
63880;SDS011;50046;46.672;11.152;2022-12-18T00:34:23;0.43;;;0.43;;
63880;SDS011;50046;46.672;11.152;2022-12-18T00:34:33;0.40;;;0.40;;
63880;SDS011;50046;46.672;11.152;2022-12-18T00:34:44;0.50;;;0.50;;
63880;SDS011;50046;46.672;11.152;2022-12-18T00:34:54;0.60;;;0.60;;
63880;SDS011;50046;46.672;11.152;2022-12-18T00:35:05;0.60;;;0.60;;
63880;SDS011;50046;46.672;11.152;2022-12-18T00:35:18;0.60;;;0.60;;
63880;SDS011;50046;46.672;11.152;2022-12-18T00:35:28;0.57;;;0.57;;
63880;SDS011;50046;46.672;11.152;2022-12-18T00:35:39;0.50;;;0.50;;
63880;SDS011;50046;46.672;11.152;2022-12-18T00:35:49;0.50;;;0.50;;
63880;SDS011;50046;46.672;11.152;2022-12-18T00:36:00;0.50;;;0.50;;
63880;SDS011;50046;46.672;11.152;2022-12-18T00:36:22;0.43;;;0.43;;
63880;SDS011;50046;46.672;11.152;2022-12-18T00:36:34;0.50;;;0.50;;
63880;SDS011;50046;46.672;11.152;2022-12-18T00:36:46;0.57;;;0.57;;
63880;SDS011;50046;46.672;11.152;2022-12-18T00:36:57;0.60;;;0.60;;
63880;SDS011;50046;46.672;11.152;2022-12-18T00:37:08;0.60;;;0.60;;
63880;SDS011;50046;46.672;11.152;2022-12-18T00:37:18;0.60;;;0.60;;
63880;SDS011;50046;46.672;11.152;2022-12-18T00:37:28;0.50;;;0.50;;
63880;SDS011;50046;46.672;11.152;2022-12-18T00:37:39;0.50;;;0.50;;
63880;SDS011;50046;46.672;11.152;2022-12-18T00:37:49;0.50;;;0.50;;
63880;SDS011;50046;46.672;11.152;2022-12-18T00:38:00;0.50;;;0.50;;
63880;SDS011;50046;46.672;11.152;2022-12-18T00:38:10;0.40;;;0.40;;
63880;SDS011;50046;46.672;11.152;2022-12-18T00:38:20;0.40;;;0.40;;
63880;SDS011;50046;46.672;11.152;2022-12-18T00:38:31;0.50;;;0.50;;
63880;SDS011;50046;46.672;11.152;2022-12-18T00:38:41;0.60;;;0.60;;
63880;SDS011;50046;46.672;11.152;2022-12-18T00:38:56;0.60;;;0.60;;
63880;SDS011;50046;46.672;11.152;2022-12-18T00:39:07;0.60;;;0.60;;
63880;SDS011;50046;46.672;11.152;2022-12-18T00:39:18;0.50;;;0.50;;
63880;SDS011;50046;46.672;11.152;2022-12-18T00:39:28;0.50;;;0.50;;
63880;SDS011;50046;46.672;11.152;2022-12-18T00:39:39;0.50;;;0.50;;
63880;SDS011;50046;46.672;11.152;2022-12-18T00:39:49;0.50;;;0.50;;
63880;SDS011;50046;46.672;11.152;2022-12-18T00:39:59;0.50;;;0.50;;
63880;SDS011;50046;46.672;11.152;2022-12-18T00:40:10;0.40;;;0.40;;
63880;SDS011;50046;46.672;11.152;2022-12-18T00:40:21;0.60;;;0.60;;
63880;SDS011;50046;46.672;11.152;2022-12-18T00:40:31;0.70;;;0.70;;
63880;SDS011;50046;46.672;11.152;2022-12-18T00:40:42;0.80;;;0.80;;
63880;SDS011;50046;46.672;11.152;2022-12-18T00:40:52;0.70;;;0.70;;
63880;SDS011;50046;46.672;11.152;2022-12-18T00:41:03;0.70;;;0.70;;
63880;SDS011;50046;46.672;11.152;2022-12-18T00:41:14;0.60;;;0.60;;
63880;SDS011;50046;46.672;11.152;2022-12-18T00:41:46;0.60;;;0.60;;
63880;SDS011;50046;46.672;11.152;2022-12-18T00:42:15;0.50;;;0.50;;
63880;SDS011;50046;46.672;11.152;2022-12-18T00:42:44;0.50;;;0.50;;
63880;SDS011;50046;46.672;11.152;2022-12-18T00:43:06;0.60;;;0.60;;
63880;SDS011;50046;46.672;11.152;2022-12-18T00:43:19;0.70;;;0.70;;
63880;SDS011;50046;46.672;11.152;2022-12-18T00:43:30;0.63;;;0.63;;
63880;SDS011;50046;46.672;11.152;2022-12-18T00:43:40;0.60;;;0.60;;
63880;SDS011;50046;46.672;11.152;2022-12-18T00:43:50;0.50;;;0.50;;
63880;SDS011;50046;46.672;11.152;2022-12-18T00:44:01;0.50;;;0.50;;
63880;SDS011;50046;46.672;11.152;2022-12-18T00:44:14;0.50;;;0.50;;
63880;SDS011;50046;46.672;11.152;2022-12-18T00:44:25;0.40;;;0.40;;
63880;SDS011;50046;46.672;11.152;2022-12-18T00:44:35;0.40;;;0.40;;
63880;SDS011;50046;46.672;11.152;2022-12-18T00:44:46;0.50;;;0.50;;
63880;SDS011;50046;46.672;11.152;2022-12-18T00:44:56;0.60;;;0.60;;
63880;SDS011;50046;46.672;11.152;2022-12-18T00:45:07;0.60;;;0.60;;
63880;SDS011;50046;46.672;11.152;2022-12-18T00:45:17;0.60;;;0.60;;
63880;SDS011;50046;46.672;11.152;2022-12-18T00:45:29;0.50;;;0.50;;
63880;SDS011;50046;46.672;11.152;2022-12-18T00:45:40;0.50;;;0.50;;
63880;SDS011;50046;46.672;11.152;2022-12-18T00:45:51;0.50;;;0.50;;
63880;SDS011;50046;46.672;11.152;2022-12-18T00:46:01;0.50;;;0.50;;
63880;SDS011;50046;46.672;11.152;2022-12-18T00:46:12;0.50;;;0.50;;
63880;SDS011;50046;46.672;11.152;2022-12-18T00:46:22;0.45;;;0.45;;
63880;SDS011;50046;46.672;11.152;2022-12-18T00:46:33;0.50;;;0.50;;
63880;SDS011;50046;46.672;11.152;2022-12-18T00:46:43;0.60;;;0.60;;
63880;SDS011;50046;46.672;11.152;2022-12-18T00:46:55;0.60;;;0.60;;
63880;SDS011;50046;46.672;11.152;2022-12-18T00:47:05;0.60;;;0.60;;
63880;SDS011;50046;46.672;11.152;2022-12-18T00:47:15;0.50;;;0.50;;
63880;SDS011;50046;46.672;11.152;2022-12-18T00:47:26;0.50;;;0.50;;
63880;SDS011;50046;46.672;11.152;2022-12-18T00:47:36;0.50;;;0.50;;
63880;SDS011;50046;46.672;11.152;2022-12-18T00:47:46;0.50;;;0.50;;
63880;SDS011;50046;46.672;11.152;2022-12-18T00:47:57;0.40;;;0.40;;
63880;SDS011;50046;46.672;11.152;2022-12-18T00:48:07;0.50;;;0.50;;
63880;SDS011;50046;46.672;11.152;2022-12-18T00:48:18;0.60;;;0.60;;
63880;SDS011;50046;46.672;11.152;2022-12-18T00:48:28;0.60;;;0.60;;
63880;SDS011;50046;46.672;11.152;2022-12-18T00:48:39;0.60;;;0.60;;
63880;SDS011;50046;46.672;11.152;2022-12-18T00:48:49;0.50;;;0.50;;
63880;SDS011;50046;46.672;11.152;2022-12-18T00:48:59;0.50;;;0.50;;
63880;SDS011;50046;46.672;11.152;2022-12-18T00:49:13;0.50;;;0.50;;
63880;SDS011;50046;46.672;11.152;2022-12-18T00:49:24;0.50;;;0.50;;
63880;SDS011;50046;46.672;11.152;2022-12-18T00:49:35;0.50;;;0.50;;
63880;SDS011;50046;46.672;11.152;2022-12-18T00:49:45;0.50;;;0.50;;
63880;SDS011;50046;46.672;11.152;2022-12-18T00:49:55;0.50;;;0.50;;
63880;SDS011;50046;46.672;11.152;2022-12-18T00:50:06;0.50;;;0.50;;
63880;SDS011;50046;46.672;11.152;2022-12-18T00:50:17;0.60;;;0.60;;
63880;SDS011;50046;46.672;11.152;2022-12-18T00:50:28;0.50;;;0.50;;
63880;SDS011;50046;46.672;11.152;2022-12-18T00:50:38;0.50;;;0.50;;
63880;SDS011;50046;46.672;11.152;2022-12-18T00:50:49;0.50;;;0.50;;
63880;SDS011;50046;46.672;11.152;2022-12-18T00:51:00;0.50;;;0.50;;
63880;SDS011;50046;46.672;11.152;2022-12-18T00:51:10;0.50;;;0.50;;
63880;SDS011;50046;46.672;11.152;2022-12-18T00:51:21;0.43;;;0.43;;
63880;SDS011;50046;46.672;11.152;2022-12-18T00:51:31;0.40;;;0.40;;
63880;SDS011;50046;46.672;11.152;2022-12-18T00:51:41;0.40;;;0.40;;
63880;SDS011;50046;46.672;11.152;2022-12-18T00:51:52;0.50;;;0.50;;
63880;SDS011;50046;46.672;11.152;2022-12-18T00:52:05;0.60;;;0.60;;
63880;SDS011;50046;46.672;11.152;2022-12-18T00:52:16;0.60;;;0.60;;
63880;SDS011;50046;46.672;11.152;2022-12-18T00:52:26;0.60;;;0.60;;
63880;SDS011;50046;46.672;11.152;2022-12-18T00:52:36;0.60;;;0.60;;
63880;SDS011;50046;46.672;11.152;2022-12-18T00:52:49;0.60;;;0.60;;
63880;SDS011;50046;46.672;11.152;2022-12-18T00:53:00;0.50;;;0.50;;
63880;SDS011;50046;46.672;11.152;2022-12-18T00:53:11;0.50;;;0.50;;
63880;SDS011;50046;46.672;11.152;2022-12-18T00:53:22;0.43;;;0.43;;
63880;SDS011;50046;46.672;11.152;2022-12-18T00:53:32;0.40;;;0.40;;
63880;SDS011;50046;46.672;11.152;2022-12-18T00:53:42;0.55;;;0.55;;
63880;SDS011;50046;46.672;11.152;2022-12-18T00:54:12;0.80;;;0.80;;
63880;SDS011;50046;46.672;11.152;2022-12-18T00:54:23;0.80;;;0.80;;
63880;SDS011;50046;46.672;11.152;2022-12-18T00:54:33;0.70;;;0.70;;
63880;SDS011;50046;46.672;11.152;2022-12-18T00:54:44;0.70;;;0.70;;
63880;SDS011;50046;46.672;11.152;2022-12-18T00:54:54;0.60;;;0.60;;
63880;SDS011;50046;46.672;11.152;2022-12-18T00:55:04;0.60;;;0.60;;
63880;SDS011;50046;46.672;11.152;2022-12-18T00:55:15;0.50;;;0.50;;
63880;SDS011;50046;46.672;11.152;2022-12-18T00:55:26;0.50;;;0.50;;
63880;SDS011;50046;46.672;11.152;2022-12-18T00:55:37;0.50;;;0.50;;
63880;SDS011;50046;46.672;11.152;2022-12-18T00:55:49;0.50;;;0.50;;
63880;SDS011;50046;46.672;11.152;2022-12-18T00:55:59;0.50;;;0.50;;
63880;SDS011;50046;46.672;11.152;2022-12-18T00:56:12;0.40;;;0.40;;
63880;SDS011;50046;46.672;11.152;2022-12-18T00:56:23;0.50;;;0.50;;
63880;SDS011;50046;46.672;11.152;2022-12-18T00:56:37;0.55;;;0.55;;
63880;SDS011;50046;46.672;11.152;2022-12-18T00:56:48;0.68;;;0.68;;
63880;SDS011;50046;46.672;11.152;2022-12-18T00:56:58;0.60;;;0.60;;
63880;SDS011;50046;46.672;11.152;2022-12-18T00:57:09;0.60;;;0.60;;
63880;SDS011;50046;46.672;11.152;2022-12-18T00:57:19;0.50;;;0.50;;
63880;SDS011;50046;46.672;11.152;2022-12-18T00:57:29;0.50;;;0.50;;
63880;SDS011;50046;46.672;11.152;2022-12-18T00:57:40;0.50;;;0.50;;
63880;SDS011;50046;46.672;11.152;2022-12-18T00:57:51;0.50;;;0.50;;
63880;SDS011;50046;46.672;11.152;2022-12-18T00:58:02;0.43;;;0.43;;
63880;SDS011;50046;46.672;11.152;2022-12-18T00:58:13;0.43;;;0.43;;
63880;SDS011;50046;46.672;11.152;2022-12-18T00:58:25;0.60;;;0.60;;
63880;SDS011;50046;46.672;11.152;2022-12-18T00:58:35;0.73;;;0.73;;
63880;SDS011;50046;46.672;11.152;2022-12-18T00:58:46;0.80;;;0.80;;
63880;SDS011;50046;46.672;11.152;2022-12-18T00:58:56;0.80;;;0.80;;
63880;SDS011;50046;46.672;11.152;2022-12-18T00:59:07;0.70;;;0.70;;
63880;SDS011;50046;46.672;11.152;2022-12-18T00:59:17;0.63;;;0.63;;
63880;SDS011;50046;46.672;11.152;2022-12-18T00:59:28;0.60;;;0.60;;
63880;SDS011;50046;46.672;11.152;2022-12-18T00:59:39;0.60;;;0.60;;
63880;SDS011;50046;46.672;11.152;2022-12-18T00:59:50;0.60;;;0.60;;
63880;SDS011;50046;46.672;11.152;2022-12-18T01:00:00;0.60;;;0.60;;
63880;SDS011;50046;46.672;11.152;2022-12-18T01:00:12;0.50;;;0.50;;
63880;SDS011;50046;46.672;11.152;2022-12-18T01:00:24;0.50;;;0.50;;
63880;SDS011;50046;46.672;11.152;2022-12-18T01:00:35;0.50;;;0.50;;
63880;SDS011;50046;46.672;11.152;2022-12-18T01:00:46;0.50;;;0.50;;
63880;SDS011;50046;46.672;11.152;2022-12-18T01:00:56;0.50;;;0.50;;
63880;SDS011;50046;46.672;11.152;2022-12-18T01:01:07;0.60;;;0.60;;
63880;SDS011;50046;46.672;11.152;2022-12-18T01:01:18;0.60;;;0.60;;
63880;SDS011;50046;46.672;11.152;2022-12-18T01:01:28;0.60;;;0.60;;
63880;SDS011;50046;46.672;11.152;2022-12-18T01:01:39;0.60;;;0.60;;
63880;SDS011;50046;46.672;11.152;2022-12-18T01:01:49;0.60;;;0.60;;
63880;SDS011;50046;46.672;11.152;2022-12-18T01:02:00;0.50;;;0.50;;
63880;SDS011;50046;46.672;11.152;2022-12-18T01:02:10;0.50;;;0.50;;
63880;SDS011;50046;46.672;11.152;2022-12-18T01:02:23;0.50;;;0.50;;
63880;SDS011;50046;46.672;11.152;2022-12-18T01:02:34;0.50;;;0.50;;
63880;SDS011;50046;46.672;11.152;2022-12-18T01:02:44;0.50;;;0.50;;
63880;SDS011;50046;46.672;11.152;2022-12-18T01:02:55;0.60;;;0.60;;
63880;SDS011;50046;46.672;11.152;2022-12-18T01:03:05;0.60;;;0.60;;
63880;SDS011;50046;46.672;11.152;2022-12-18T01:03:15;0.60;;;0.60;;
63880;SDS011;50046;46.672;11.152;2022-12-18T01:03:26;0.60;;;0.60;;
63880;SDS011;50046;46.672;11.152;2022-12-18T01:03:36;0.60;;;0.60;;
63880;SDS011;50046;46.672;11.152;2022-12-18T01:03:46;0.50;;;0.50;;
63880;SDS011;50046;46.672;11.152;2022-12-18T01:03:57;0.50;;;0.50;;
63880;SDS011;50046;46.672;11.152;2022-12-18T01:04:07;0.50;;;0.50;;
63880;SDS011;50046;46.672;11.152;2022-12-18T01:04:18;0.55;;;0.55;;
63880;SDS011;50046;46.672;11.152;2022-12-18T01:04:30;0.70;;;0.70;;
63880;SDS011;50046;46.672;11.152;2022-12-18T01:04:41;0.80;;;0.80;;
63880;SDS011;50046;46.672;11.152;2022-12-18T01:04:52;0.73;;;0.73;;
63880;SDS011;50046;46.672;11.152;2022-12-18T01:05:02;0.70;;;0.70;;
63880;SDS011;50046;46.672;11.152;2022-12-18T01:05:13;0.70;;;0.70;;
63880;SDS011;50046;46.672;11.152;2022-12-18T01:05:26;0.65;;;0.65;;
63880;SDS011;50046;46.672;11.152;2022-12-18T01:05:38;0.60;;;0.60;;
63880;SDS011;50046;46.672;11.152;2022-12-18T01:05:50;0.60;;;0.60;;
63880;SDS011;50046;46.672;11.152;2022-12-18T01:06:05;0.57;;;0.57;;
63880;SDS011;50046;46.672;11.152;2022-12-18T01:06:19;0.50;;;0.50;;
63880;SDS011;50046;46.672;11.152;2022-12-18T01:06:30;0.43;;;0.43;;
63880;SDS011;50046;46.672;11.152;2022-12-18T01:06:40;0.40;;;0.40;;
63880;SDS011;50046;46.672;11.152;2022-12-18T01:06:51;0.47;;;0.47;;
63880;SDS011;50046;46.672;11.152;2022-12-18T01:07:01;0.50;;;0.50;;
63880;SDS011;50046;46.672;11.152;2022-12-18T01:07:11;0.50;;;0.50;;
63880;SDS011;50046;46.672;11.152;2022-12-18T01:07:22;0.50;;;0.50;;
63880;SDS011;50046;46.672;11.152;2022-12-18T01:07:32;0.50;;;0.50;;
63880;SDS011;50046;46.672;11.152;2022-12-18T01:07:43;0.50;;;0.50;;
63880;SDS011;50046;46.672;11.152;2022-12-18T01:07:53;0.50;;;0.50;;